sensor_id;sensor_type;location;lat;lon;timestamp;pressure;altitude;pressure_sealevel;temperature;humidity
37206;BME280;23099;42.636;23.198;2023-04-29T00:01:17;92037.91;;;4.30;72.85
37206;BME280;23099;42.636;23.198;2023-04-29T00:03:43;92043.66;;;4.32;74.85
37206;BME280;23099;42.636;23.198;2023-04-29T00:06:11;92034.28;;;4.34;73.87
37206;BME280;23099;42.636;23.198;2023-04-29T00:08:38;92034.63;;;4.33;75.14
37206;BME280;23099;42.636;23.198;2023-04-29T00:11:05;92037.28;;;4.33;76.12
37206;BME280;23099;42.636;23.198;2023-04-29T00:13:32;92029.75;;;4.35;76.48
37206;BME280;23099;42.636;23.198;2023-04-29T00:15:58;92030.28;;;4.28;74.99
37206;BME280;23099;42.636;23.198;2023-04-29T00:18:25;92031.84;;;4.29;75.96
37206;BME280;23099;42.636;23.198;2023-04-29T00:20:52;92029.75;;;4.35;74.03
37206;BME280;23099;42.636;23.198;2023-04-29T00:23:20;92031.31;;;4.36;73.92
37206;BME280;23099;42.636;23.198;2023-04-29T00:25:46;92033.78;;;4.41;72.77
37206;BME280;23099;42.636;23.198;2023-04-29T00:28:13;92023.34;;;4.44;72.81
37206;BME280;23099;42.636;23.198;2023-04-29T00:30:40;92025.00;;;4.49;72.58
37206;BME280;23099;42.636;23.198;2023-04-29T00:33:06;92021.72;;;4.52;74.37
37206;BME280;23099;42.636;23.198;2023-04-29T00:35:33;92022.56;;;4.44;72.45
37206;BME280;23099;42.636;23.198;2023-04-29T00:38:00;92027.97;;;4.47;72.56
37206;BME280;23099;42.636;23.198;2023-04-29T00:40:28;92031.84;;;4.50;74.68
37206;BME280;23099;42.636;23.198;2023-04-29T00:42:55;92032.63;;;4.50;73.07
37206;BME280;23099;42.636;23.198;2023-04-29T00:45:22;92024.63;;;4.38;72.46
37206;BME280;23099;42.636;23.198;2023-04-29T00:47:49;92023.38;;;4.36;72.03
37206;BME280;23099;42.636;23.198;2023-04-29T00:50:16;92021.66;;;4.40;72.67
37206;BME280;23099;42.636;23.198;2023-04-29T00:52:43;92017.28;;;4.44;73.02
37206;BME280;23099;42.636;23.198;2023-04-29T00:55:10;92015.13;;;4.37;73.25
37206;BME280;23099;42.636;23.198;2023-04-29T00:57:39;92020.88;;;4.39;72.95
37206;BME280;23099;42.636;23.198;2023-04-29T01:00:07;92015.91;;;4.38;74.01
37206;BME280;23099;42.636;23.198;2023-04-29T01:02:35;92017.19;;;4.32;74.20
37206;BME280;23099;42.636;23.198;2023-04-29T01:05:02;92017.09;;;4.19;73.59
37206;BME280;23099;42.636;23.198;2023-04-29T01:07:35;92013.59;;;4.07;74.01
37206;BME280;23099;42.636;23.198;2023-04-29T01:10:08;92013.97;;;3.97;74.91
37206;BME280;23099;42.636;23.198;2023-04-29T01:12:43;92010.72;;;3.91;75.91
37206;BME280;23099;42.636;23.198;2023-04-29T01:15:17;92009.31;;;3.94;75.68
37206;BME280;23099;42.636;23.198;2023-04-29T01:17:49;92008.78;;;3.71;76.10
37206;BME280;23099;42.636;23.198;2023-04-29T01:20:18;92009.63;;;3.54;76.40
37206;BME280;23099;42.636;23.198;2023-04-29T01:22:45;92004.50;;;3.49;77.17
37206;BME280;23099;42.636;23.198;2023-04-29T01:25:14;92014.06;;;3.24;79.31
37206;BME280;23099;42.636;23.198;2023-04-29T01:27:49;92012.34;;;3.19;80.88
37206;BME280;23099;42.636;23.198;2023-04-29T01:30:25;92006.16;;;3.07;81.37
37206;BME280;23099;42.636;23.198;2023-04-29T01:32:59;92011.81;;;2.88;82.71
37206;BME280;23099;42.636;23.198;2023-04-29T01:35:37;92013.78;;;2.91;82.16
37206;BME280;23099;42.636;23.198;2023-04-29T01:38:15;92008.66;;;3.03;82.53
37206;BME280;23099;42.636;23.198;2023-04-29T01:40:47;92006.16;;;3.07;82.49
37206;BME280;23099;42.636;23.198;2023-04-29T01:43:21;92004.44;;;3.19;82.15
37206;BME280;23099;42.636;23.198;2023-04-29T01:45:49;91987.81;;;3.28;82.10
37206;BME280;23099;42.636;23.198;2023-04-29T01:48:18;91993.25;;;3.31;81.55
37206;BME280;23099;42.636;23.198;2023-04-29T01:50:45;91988.44;;;3.25;79.99
37206;BME280;23099;42.636;23.198;2023-04-29T01:53:12;91999.63;;;3.22;80.21
37206;BME280;23099;42.636;23.198;2023-04-29T01:55:39;92004.63;;;3.14;79.89
37206;BME280;23099;42.636;23.198;2023-04-29T01:58:07;92005.09;;;2.99;79.84
37206;BME280;23099;42.636;23.198;2023-04-29T02:00:33;92002.16;;;2.92;81.64
37206;BME280;23099;42.636;23.198;2023-04-29T02:03:01;92001.38;;;3.00;81.41
37206;BME280;23099;42.636;23.198;2023-04-29T02:05:27;92005.41;;;2.89;82.31
37206;BME280;23099;42.636;23.198;2023-04-29T02:07:56;92004.47;;;2.94;83.00
37206;BME280;23099;42.636;23.198;2023-04-29T02:10:23;92004.94;;;2.96;82.36
37206;BME280;23099;42.636;23.198;2023-04-29T02:12:50;92008.84;;;2.98;82.41
37206;BME280;23099;42.636;23.198;2023-04-29T02:15:18;92004.50;;;3.02;82.53
37206;BME280;23099;42.636;23.198;2023-04-29T02:17:45;92000.91;;;2.98;82.64
37206;BME280;23099;42.636;23.198;2023-04-29T02:20:12;91993.31;;;2.97;83.17
37206;BME280;23099;42.636;23.198;2023-04-29T02:22:38;91988.31;;;3.04;83.62
37206;BME280;23099;42.636;23.198;2023-04-29T02:25:06;91988.94;;;3.09;83.80
37206;BME280;23099;42.636;23.198;2023-04-29T02:27:32;91990.75;;;3.17;82.98
37206;BME280;23099;42.636;23.198;2023-04-29T02:29:59;91989.84;;;3.13;82.40
37206;BME280;23099;42.636;23.198;2023-04-29T02:32:27;91986.91;;;3.15;81.44
37206;BME280;23099;42.636;23.198;2023-04-29T02:34:54;91984.13;;;3.11;81.56
37206;BME280;23099;42.636;23.198;2023-04-29T02:37:20;91979.75;;;3.07;81.82
37206;BME280;23099;42.636;23.198;2023-04-29T02:39:47;91976.53;;;3.01;81.26
37206;BME280;23099;42.636;23.198;2023-04-29T02:42:14;91977.94;;;2.99;81.56
37206;BME280;23099;42.636;23.198;2023-04-29T02:44:41;91975.13;;;2.95;81.18
37206;BME280;23099;42.636;23.198;2023-04-29T02:47:08;91979.94;;;2.93;82.53
37206;BME280;23099;42.636;23.198;2023-04-29T02:49:36;91978.09;;;2.94;82.26
37206;BME280;23099;42.636;23.198;2023-04-29T02:52:03;91982.28;;;2.95;82.74
37206;BME280;23099;42.636;23.198;2023-04-29T02:54:30;91984.91;;;2.95;81.91
37206;BME280;23099;42.636;23.198;2023-04-29T02:56:57;91988.50;;;2.99;82.44
37206;BME280;23099;42.636;23.198;2023-04-29T02:59:23;91999.50;;;3.01;82.16
37206;BME280;23099;42.636;23.198;2023-04-29T03:01:50;92002.78;;;2.98;81.80
37206;BME280;23099;42.636;23.198;2023-04-29T03:04:18;91999.97;;;2.94;81.18
37206;BME280;23099;42.636;23.198;2023-04-29T03:06:46;91997.66;;;2.93;81.81
37206;BME280;23099;42.636;23.198;2023-04-29T03:09:13;91994.38;;;2.96;81.16
37206;BME280;23099;42.636;23.198;2023-04-29T03:11:39;92001.25;;;2.88;80.88
37206;BME280;23099;42.636;23.198;2023-04-29T03:14:06;92004.19;;;2.78;80.72
37206;BME280;23099;42.636;23.198;2023-04-29T03:16:33;91998.94;;;2.69;82.19
37206;BME280;23099;42.636;23.198;2023-04-29T03:19:00;91999.41;;;2.71;81.75
37206;BME280;23099;42.636;23.198;2023-04-29T03:21:27;91998.75;;;2.74;82.17
37206;BME280;23099;42.636;23.198;2023-04-29T03:23:55;92018.00;;;2.75;82.36
37206;BME280;23099;42.636;23.198;2023-04-29T03:26:22;92028.41;;;2.63;82.39
37206;BME280;23099;42.636;23.198;2023-04-29T03:28:50;92025.47;;;2.56;81.89
37206;BME280;23099;42.636;23.198;2023-04-29T03:31:16;92021.25;;;2.46;82.98
37206;BME280;23099;42.636;23.198;2023-04-29T03:33:45;92030.72;;;2.47;83.83
37206;BME280;23099;42.636;23.198;2023-04-29T03:36:11;92032.13;;;2.44;83.21
37206;BME280;23099;42.636;23.198;2023-04-29T03:38:38;92038.19;;;2.45;83.18
37206;BME280;23099;42.636;23.198;2023-04-29T03:41:06;92022.19;;;2.24;83.30
37206;BME280;23099;42.636;23.198;2023-04-29T03:43:33;92019.41;;;2.29;84.02
37206;BME280;23099;42.636;23.198;2023-04-29T03:46:00;92011.78;;;2.36;85.01
37206;BME280;23099;42.636;23.198;2023-04-29T03:48:27;92010.56;;;2.42;85.27
37206;BME280;23099;42.636;23.198;2023-04-29T03:50:53;92009.78;;;2.42;84.86
37206;BME280;23099;42.636;23.198;2023-04-29T03:53:20;92006.50;;;2.36;85.21
37206;BME280;23099;42.636;23.198;2023-04-29T03:55:47;92005.28;;;2.42;85.89
37206;BME280;23099;42.636;23.198;2023-04-29T03:58:15;92018.16;;;2.61;86.37
37206;BME280;23099;42.636;23.198;2023-04-29T04:00:42;92019.41;;;2.81;86.86
37206;BME280;23099;42.636;23.198;2023-04-29T04:03:08;92033.22;;;2.95;86.56
37206;BME280;23099;42.636;23.198;2023-04-29T04:05:35;92030.56;;;3.04;85.88
37206;BME280;23099;42.636;23.198;2023-04-29T04:08:02;92034.00;;;2.96;85.70
37206;BME280;23099;42.636;23.198;2023-04-29T04:10:28;92025.44;;;2.99;86.42
37206;BME280;23099;42.636;23.198;2023-04-29T04:12:55;92024.06;;;3.01;85.74
37206;BME280;23099;42.636;23.198;2023-04-29T04:15:23;92028.38;;;3.06;85.28
37206;BME280;23099;42.636;23.198;2023-04-29T04:17:50;92030.41;;;3.09;83.76
37206;BME280;23099;42.636;23.198;2023-04-29T04:20:17;92035.84;;;3.12;83.66
37206;BME280;23099;42.636;23.198;2023-04-29T04:22:44;92037.69;;;3.20;83.92
37206;BME280;23099;42.636;23.198;2023-04-29T04:25:11;92032.41;;;3.12;83.55
37206;BME280;23099;42.636;23.198;2023-04-29T04:27:37;92035.19;;;3.24;84.48
37206;BME280;23099;42.636;23.198;2023-04-29T04:30:05;92029.25;;;3.36;83.74
37206;BME280;23099;42.636;23.198;2023-04-29T04:32:33;92023.31;;;3.47;82.80
37206;BME280;23099;42.636;23.198;2023-04-29T04:35:00;92017.50;;;3.63;84.11
37206;BME280;23099;42.636;23.198;2023-04-29T04:37:26;92005.31;;;3.79;85.10
37206;BME280;23099;42.636;23.198;2023-04-29T04:39:53;92024.28;;;3.89;85.33
37206;BME280;23099;42.636;23.198;2023-04-29T04:45:23;92021.59;;;4.19;85.14
37206;BME280;23099;42.636;23.198;2023-04-29T04:47:51;92018.94;;;4.28;84.64
37206;BME280;23099;42.636;23.198;2023-04-29T04:50:18;92020.88;;;4.39;82.65
37206;BME280;23099;42.636;23.198;2023-04-29T04:52:45;92020.03;;;4.47;82.43
37206;BME280;23099;42.636;23.198;2023-04-29T04:55:12;92015.78;;;4.55;82.43
37206;BME280;23099;42.636;23.198;2023-04-29T04:57:38;92011.19;;;4.64;81.52
37206;BME280;23099;42.636;23.198;2023-04-29T05:00:06;92007.41;;;4.74;81.23
37206;BME280;23099;42.636;23.198;2023-04-29T05:02:33;92006.88;;;4.80;80.61
37206;BME280;23099;42.636;23.198;2023-04-29T05:05:01;91994.78;;;4.91;80.27
37206;BME280;23099;42.636;23.198;2023-04-29T05:07:28;91995.63;;;5.04;79.83
37206;BME280;23099;42.636;23.198;2023-04-29T05:09:54;91989.59;;;5.16;79.66
37206;BME280;23099;42.636;23.198;2023-04-29T05:12:21;91998.41;;;5.20;78.34
37206;BME280;23099;42.636;23.198;2023-04-29T05:14:51;91992.78;;;5.21;77.58
37206;BME280;23099;42.636;23.198;2023-04-29T05:17:18;91998.78;;;5.30;76.30
37206;BME280;23099;42.636;23.198;2023-04-29T05:19:45;91992.06;;;5.33;74.86
37206;BME280;23099;42.636;23.198;2023-04-29T05:22:13;91992.88;;;5.46;76.47
37206;BME280;23099;42.636;23.198;2023-04-29T05:24:39;91989.78;;;5.56;75.25
37206;BME280;23099;42.636;23.198;2023-04-29T05:27:06;91986.69;;;5.66;76.43
37206;BME280;23099;42.636;23.198;2023-04-29T05:29:33;91981.84;;;5.80;76.28
37206;BME280;23099;42.636;23.198;2023-04-29T05:31:59;91987.19;;;5.92;75.46
37206;BME280;23099;42.636;23.198;2023-04-29T05:34:26;91993.72;;;6.07;75.67
37206;BME280;23099;42.636;23.198;2023-04-29T05:36:53;91989.59;;;6.22;73.46
37206;BME280;23099;42.636;23.198;2023-04-29T05:39:21;91992.69;;;6.36;70.55
37206;BME280;23099;42.636;23.198;2023-04-29T05:41:48;91989.59;;;6.46;70.01
37206;BME280;23099;42.636;23.198;2023-04-29T05:44:14;91994.00;;;6.54;67.79
37206;BME280;23099;42.636;23.198;2023-04-29T05:46:41;91991.22;;;6.63;65.88
37206;BME280;23099;42.636;23.198;2023-04-29T05:49:08;91996.63;;;6.66;67.46
37206;BME280;23099;42.636;23.198;2023-04-29T05:51:34;91990.44;;;6.74;66.30
37206;BME280;23099;42.636;23.198;2023-04-29T05:54:01;91997.25;;;6.88;65.36
37206;BME280;23099;42.636;23.198;2023-04-29T05:56:30;91994.97;;;7.02;66.49
37206;BME280;23099;42.636;23.198;2023-04-29T05:58:56;91990.38;;;7.15;65.86
37206;BME280;23099;42.636;23.198;2023-04-29T06:01:23;91987.69;;;7.27;62.45
37206;BME280;23099;42.636;23.198;2023-04-29T06:03:49;91993.38;;;7.41;60.83
37206;BME280;23099;42.636;23.198;2023-04-29T06:06:16;91991.50;;;7.57;61.23
37206;BME280;23099;42.636;23.198;2023-04-29T06:08:43;91986.13;;;7.69;57.27
37206;BME280;23099;42.636;23.198;2023-04-29T06:11:10;91987.06;;;7.77;54.78
37206;BME280;23099;42.636;23.198;2023-04-29T06:13:38;91999.09;;;7.87;54.32
37206;BME280;23099;42.636;23.198;2023-04-29T06:16:05;91973.84;;;7.96;53.77
37206;BME280;23099;42.636;23.198;2023-04-29T06:18:32;91980.22;;;8.07;52.89
37206;BME280;23099;42.636;23.198;2023-04-29T06:20:58;91976.84;;;8.10;52.06
37206;BME280;23099;42.636;23.198;2023-04-29T06:23:25;91988.00;;;8.16;51.43
37206;BME280;23099;42.636;23.198;2023-04-29T06:25:52;91977.09;;;8.21;51.88
37206;BME280;23099;42.636;23.198;2023-04-29T06:28:18;91981.13;;;8.31;50.77
37206;BME280;23099;42.636;23.198;2023-04-29T06:30:46;91985.16;;;8.40;51.38
37206;BME280;23099;42.636;23.198;2023-04-29T06:33:13;91982.66;;;8.47;54.55
37206;BME280;23099;42.636;23.198;2023-04-29T06:35:40;91973.81;;;8.43;60.01
37206;BME280;23099;42.636;23.198;2023-04-29T06:38:07;91980.00;;;8.47;63.04
37206;BME280;23099;42.636;23.198;2023-04-29T06:40:33;91978.56;;;8.34;63.50
37206;BME280;23099;42.636;23.198;2023-04-29T06:43:00;91977.47;;;8.35;63.26
37206;BME280;23099;42.636;23.198;2023-04-29T06:45:29;91982.91;;;8.27;62.99
37206;BME280;23099;42.636;23.198;2023-04-29T06:47:57;91981.91;;;8.31;64.06
37206;BME280;23099;42.636;23.198;2023-04-29T06:50:23;91984.91;;;8.45;65.16
37206;BME280;23099;42.636;23.198;2023-04-29T06:52:50;91987.66;;;8.49;64.93
37206;BME280;23099;42.636;23.198;2023-04-29T06:55:17;91980.94;;;8.39;63.71
37206;BME280;23099;42.636;23.198;2023-04-29T06:57:43;91982.31;;;8.49;64.01
37206;BME280;23099;42.636;23.198;2023-04-29T07:00:11;91981.34;;;8.57;64.01
37206;BME280;23099;42.636;23.198;2023-04-29T07:02:37;91981.31;;;8.73;63.63
37206;BME280;23099;42.636;23.198;2023-04-29T07:05:06;91976.00;;;8.92;63.66
37206;BME280;23099;42.636;23.198;2023-04-29T07:07:33;91982.06;;;9.08;63.38
37206;BME280;23099;42.636;23.198;2023-04-29T07:10:00;91979.28;;;9.24;61.40
37206;BME280;23099;42.636;23.198;2023-04-29T07:12:26;91988.06;;;9.44;61.12
37206;BME280;23099;42.636;23.198;2023-04-29T07:14:53;91973.34;;;9.53;60.29
37206;BME280;23099;42.636;23.198;2023-04-29T07:17:20;91981.09;;;9.81;60.16
37206;BME280;23099;42.636;23.198;2023-04-29T07:19:46;91977.16;;;9.95;57.61
37206;BME280;23099;42.636;23.198;2023-04-29T07:22:14;91975.88;;;10.11;58.04
37206;BME280;23099;42.636;23.198;2023-04-29T07:24:41;91975.13;;;10.34;58.68
37206;BME280;23099;42.636;23.198;2023-04-29T07:27:08;91974.00;;;10.61;56.42
37206;BME280;23099;42.636;23.198;2023-04-29T07:29:34;91963.22;;;10.84;56.80
37206;BME280;23099;42.636;23.198;2023-04-29T07:32:02;91968.16;;;11.12;54.37
37206;BME280;23099;42.636;23.198;2023-04-29T07:34:29;91974.06;;;11.28;49.19
37206;BME280;23099;42.636;23.198;2023-04-29T07:36:56;91972.84;;;11.52;48.74
37206;BME280;23099;42.636;23.198;2023-04-29T07:39:24;91975.31;;;11.71;49.05
37206;BME280;23099;42.636;23.198;2023-04-29T07:41:51;91967.25;;;12.04;50.60
37206;BME280;23099;42.636;23.198;2023-04-29T07:44:17;91969.69;;;12.20;43.31
37206;BME280;23099;42.636;23.198;2023-04-29T07:46:44;91962.84;;;12.30;39.76
37206;BME280;23099;42.636;23.198;2023-04-29T07:49:11;91965.34;;;12.53;41.16
37206;BME280;23099;42.636;23.198;2023-04-29T07:51:40;91953.19;;;12.69;43.28
37206;BME280;23099;42.636;23.198;2023-04-29T07:54:06;91960.94;;;12.85;41.25
37206;BME280;23099;42.636;23.198;2023-04-29T07:56:34;91957.56;;;12.99;40.53
37206;BME280;23099;42.636;23.198;2023-04-29T07:59:02;91951.91;;;13.15;41.44
37206;BME280;23099;42.636;23.198;2023-04-29T08:01:29;91946.66;;;13.36;44.65
37206;BME280;23099;42.636;23.198;2023-04-29T08:03:57;91940.16;;;13.40;46.29
37206;BME280;23099;42.636;23.198;2023-04-29T08:06:23;91946.72;;;13.61;44.38
37206;BME280;23099;42.636;23.198;2023-04-29T08:08:50;91948.25;;;13.72;46.06
37206;BME280;23099;42.636;23.198;2023-04-29T08:11:17;91947.84;;;13.56;46.38
37206;BME280;23099;42.636;23.198;2023-04-29T08:13:46;91947.03;;;13.45;45.98
37206;BME280;23099;42.636;23.198;2023-04-29T08:16:12;91953.63;;;13.55;47.07
37206;BME280;23099;42.636;23.198;2023-04-29T08:18:39;91946.28;;;13.44;45.17
37206;BME280;23099;42.636;23.198;2023-04-29T08:21:06;91950.97;;;13.69;46.52
37206;BME280;23099;42.636;23.198;2023-04-29T08:23:33;91951.66;;;13.44;44.97
37206;BME280;23099;42.636;23.198;2023-04-29T08:26:00;91947.41;;;13.43;44.67
37206;BME280;23099;42.636;23.198;2023-04-29T08:28:27;91945.19;;;13.63;45.17
37206;BME280;23099;42.636;23.198;2023-04-29T08:30:55;91929.09;;;13.74;45.03
37206;BME280;23099;42.636;23.198;2023-04-29T08:33:22;91943.31;;;13.78;45.90
37206;BME280;23099;42.636;23.198;2023-04-29T08:35:56;91940.63;;;13.89;44.27
37206;BME280;23099;42.636;23.198;2023-04-29T08:38:23;91948.28;;;13.87;44.58
37206;BME280;23099;42.636;23.198;2023-04-29T08:40:50;91947.56;;;13.93;45.57
37206;BME280;23099;42.636;23.198;2023-04-29T08:43:17;91950.22;;;13.79;43.01
37206;BME280;23099;42.636;23.198;2023-04-29T08:45:46;91947.53;;;13.79;45.19
37206;BME280;23099;42.636;23.198;2023-04-29T08:48:15;91937.94;;;13.92;44.70
37206;BME280;23099;42.636;23.198;2023-04-29T08:50:43;91934.91;;;14.08;45.58
37206;BME280;23099;42.636;23.198;2023-04-29T08:53:11;91941.41;;;14.14;44.96
37206;BME280;23099;42.636;23.198;2023-04-29T08:55:41;91938.34;;;14.33;44.77
37206;BME280;23099;42.636;23.198;2023-04-29T08:58:08;91937.59;;;14.29;42.31
37206;BME280;23099;42.636;23.198;2023-04-29T09:00:36;91935.69;;;14.44;43.30
37206;BME280;23099;42.636;23.198;2023-04-29T09:03:11;91931.44;;;14.64;43.91
37206;BME280;23099;42.636;23.198;2023-04-29T09:05:42;91935.66;;;14.76;40.87
37206;BME280;23099;42.636;23.198;2023-04-29T09:08:11;91937.19;;;14.84;42.77
37206;BME280;23099;42.636;23.198;2023-04-29T09:10:39;91937.16;;;14.91;41.24
37206;BME280;23099;42.636;23.198;2023-04-29T09:13:07;91936.44;;;14.83;39.96
37206;BME280;23099;42.636;23.198;2023-04-29T09:15:35;91937.19;;;14.77;38.75
37206;BME280;23099;42.636;23.198;2023-04-29T09:18:02;91935.28;;;14.84;40.91
37206;BME280;23099;42.636;23.198;2023-04-29T09:20:29;91932.97;;;14.79;39.62
37206;BME280;23099;42.636;23.198;2023-04-29T09:22:59;91939.47;;;14.93;39.61
37206;BME280;23099;42.636;23.198;2023-04-29T09:25:27;91933.69;;;14.94;39.92
37206;BME280;23099;42.636;23.198;2023-04-29T09:27:54;91936.75;;;15.07;39.59
37206;BME280;23099;42.636;23.198;2023-04-29T09:30:21;91928.22;;;15.23;40.31
37206;BME280;23099;42.636;23.198;2023-04-29T09:33:05;91929.41;;;15.18;39.33
37206;BME280;23099;42.636;23.198;2023-04-29T09:35:32;91928.25;;;15.15;39.83
37206;BME280;23099;42.636;23.198;2023-04-29T09:38:11;91920.59;;;15.10;39.84
37206;BME280;23099;42.636;23.198;2023-04-29T09:40:39;91915.19;;;15.14;39.42
37206;BME280;23099;42.636;23.198;2023-04-29T09:43:11;91906.69;;;15.19;39.12
37206;BME280;23099;42.636;23.198;2023-04-29T09:45:41;91909.34;;;15.30;40.11
37206;BME280;23099;42.636;23.198;2023-04-29T09:48:09;91909.69;;;15.42;40.16
37206;BME280;23099;42.636;23.198;2023-04-29T09:50:36;91900.81;;;15.56;38.31
37206;BME280;23099;42.636;23.198;2023-04-29T09:53:04;91904.66;;;15.55;37.35
37206;BME280;23099;42.636;23.198;2023-04-29T09:55:34;91896.50;;;15.66;37.79
37206;BME280;23099;42.636;23.198;2023-04-29T09:58:01;91894.19;;;15.68;37.89
37206;BME280;23099;42.636;23.198;2023-04-29T10:00:30;91899.53;;;15.75;37.10
37206;BME280;23099;42.636;23.198;2023-04-29T10:02:58;91897.59;;;15.79;37.26
37206;BME280;23099;42.636;23.198;2023-04-29T10:05:26;91892.66;;;15.70;37.11
37206;BME280;23099;42.636;23.198;2023-04-29T10:07:53;91883.09;;;15.55;37.09
37206;BME280;23099;42.636;23.198;2023-04-29T10:10:21;91885.41;;;15.49;39.59
37206;BME280;23099;42.636;23.198;2023-04-29T10:12:51;91891.97;;;15.55;39.65
37206;BME280;23099;42.636;23.198;2023-04-29T10:15:21;91884.31;;;15.36;40.93
37206;BME280;23099;42.636;23.198;2023-04-29T10:17:54;91878.94;;;15.40;40.38
37206;BME280;23099;42.636;23.198;2023-04-29T10:20:24;91880.41;;;15.55;41.48
37206;BME280;23099;42.636;23.198;2023-04-29T10:22:52;91885.38;;;15.60;39.39
37206;BME280;23099;42.636;23.198;2023-04-29T10:25:21;91880.03;;;15.46;40.32
37206;BME280;23099;42.636;23.198;2023-04-29T10:27:50;91876.56;;;15.56;40.65
37206;BME280;23099;42.636;23.198;2023-04-29T10:30:18;91883.44;;;15.61;40.45
37206;BME280;23099;42.636;23.198;2023-04-29T10:32:46;91880.34;;;15.69;40.72
37206;BME280;23099;42.636;23.198;2023-04-29T10:35:15;91879.56;;;15.65;41.36
37206;BME280;23099;42.636;23.198;2023-04-29T10:37:44;91872.63;;;15.68;40.54
37206;BME280;23099;42.636;23.198;2023-04-29T10:40:15;91878.69;;;15.82;40.35
37206;BME280;23099;42.636;23.198;2023-04-29T10:42:44;91874.84;;;15.83;41.05
37206;BME280;23099;42.636;23.198;2023-04-29T10:45:19;91870.56;;;15.89;40.39
37206;BME280;23099;42.636;23.198;2023-04-29T10:48:12;91874.75;;;15.98;42.38
37206;BME280;23099;42.636;23.198;2023-04-29T10:50:58;91877.06;;;15.99;40.35
37206;BME280;23099;42.636;23.198;2023-04-29T10:53:26;91881.34;;;15.89;40.63
37206;BME280;23099;42.636;23.198;2023-04-29T10:55:53;91875.25;;;15.82;40.12
37206;BME280;23099;42.636;23.198;2023-04-29T10:58:40;91872.47;;;15.89;40.53
37206;BME280;23099;42.636;23.198;2023-04-29T11:01:10;91873.75;;;16.25;38.76
37206;BME280;23099;42.636;23.198;2023-04-29T11:03:51;91861.84;;;16.68;39.52
37206;BME280;23099;42.636;23.198;2023-04-29T11:06:22;91868.69;;;16.76;36.74
37206;BME280;23099;42.636;23.198;2023-04-29T11:08:59;91866.16;;;16.58;38.04
37206;BME280;23099;42.636;23.198;2023-04-29T11:11:42;91859.56;;;16.18;40.03
37206;BME280;23099;42.636;23.198;2023-04-29T11:14:09;91862.06;;;16.39;41.64
37206;BME280;23099;42.636;23.198;2023-04-29T11:16:45;91858.63;;;16.39;41.14
37206;BME280;23099;42.636;23.198;2023-04-29T11:19:14;91860.88;;;16.44;39.55
37206;BME280;23099;42.636;23.198;2023-04-29T11:21:43;91863.53;;;16.47;40.26
37206;BME280;23099;42.636;23.198;2023-04-29T11:24:10;91860.38;;;16.56;38.68
37206;BME280;23099;42.636;23.198;2023-04-29T11:26:39;91854.94;;;16.63;37.49
37206;BME280;23099;42.636;23.198;2023-04-29T11:29:07;91860.16;;;16.40;38.90
37206;BME280;23099;42.636;23.198;2023-04-29T11:31:35;91855.06;;;16.45;39.17
37206;BME280;23099;42.636;23.198;2023-04-29T11:34:04;91858.28;;;16.33;38.60
37206;BME280;23099;42.636;23.198;2023-04-29T11:36:31;91855.66;;;16.22;38.73
37206;BME280;23099;42.636;23.198;2023-04-29T11:38:59;91861.06;;;16.22;36.94
37206;BME280;23099;42.636;23.198;2023-04-29T11:41:26;91856.41;;;16.30;37.96
37206;BME280;23099;42.636;23.198;2023-04-29T11:43:54;91856.97;;;16.04;38.29
37206;BME280;23099;42.636;23.198;2023-04-29T11:46:22;91859.38;;;15.91;38.78
37206;BME280;23099;42.636;23.198;2023-04-29T11:48:49;91847.53;;;15.81;39.48
37206;BME280;23099;42.636;23.198;2023-04-29T11:51:17;91858.72;;;15.76;38.84
37206;BME280;23099;42.636;23.198;2023-04-29T11:53:45;91856.03;;;15.73;38.97
37206;BME280;23099;42.636;23.198;2023-04-29T11:56:12;91862.25;;;15.66;39.23
37206;BME280;23099;42.636;23.198;2023-04-29T11:58:40;91855.75;;;15.60;38.09
37206;BME280;23099;42.636;23.198;2023-04-29T12:01:07;91856.19;;;15.44;38.25
37206;BME280;23099;42.636;23.198;2023-04-29T12:03:34;91861.16;;;15.49;37.27
37206;BME280;23099;42.636;23.198;2023-04-29T12:06:01;91854.22;;;15.52;38.13
37206;BME280;23099;42.636;23.198;2023-04-29T12:08:29;91853.13;;;15.42;38.31
37206;BME280;23099;42.636;23.198;2023-04-29T12:10:58;91850.44;;;15.42;37.08
37206;BME280;23099;42.636;23.198;2023-04-29T12:13:27;91850.06;;;15.40;36.29
37206;BME280;23099;42.636;23.198;2023-04-29T12:15:55;91849.22;;;15.50;36.10
37206;BME280;23099;42.636;23.198;2023-04-29T12:18:22;91844.91;;;15.71;37.99
37206;BME280;23099;42.636;23.198;2023-04-29T12:20:50;91844.41;;;15.86;36.78
37206;BME280;23099;42.636;23.198;2023-04-29T12:23:18;91845.50;;;15.96;37.66
37206;BME280;23099;42.636;23.198;2023-04-29T12:25:49;91843.97;;;15.95;38.47
37206;BME280;23099;42.636;23.198;2023-04-29T12:28:17;91842.81;;;15.93;39.62
37206;BME280;23099;42.636;23.198;2023-04-29T12:30:45;91842.31;;;16.08;39.16
37206;BME280;23099;42.636;23.198;2023-04-29T12:33:15;91841.41;;;16.25;38.55
37206;BME280;23099;42.636;23.198;2023-04-29T12:35:44;91843.00;;;16.16;38.12
37206;BME280;23099;42.636;23.198;2023-04-29T12:38:10;91839.59;;;16.12;39.44
37206;BME280;23099;42.636;23.198;2023-04-29T12:40:38;91838.75;;;16.18;39.64
37206;BME280;23099;42.636;23.198;2023-04-29T12:43:07;91835.28;;;16.18;39.77
37206;BME280;23099;42.636;23.198;2023-04-29T12:45:34;91837.78;;;15.98;39.66
37206;BME280;23099;42.636;23.198;2023-04-29T12:48:01;91837.38;;;16.00;39.63
37206;BME280;23099;42.636;23.198;2023-04-29T12:50:32;91833.09;;;16.02;39.38
37206;BME280;23099;42.636;23.198;2023-04-29T12:53:00;91839.72;;;15.94;40.19
37206;BME280;23099;42.636;23.198;2023-04-29T12:55:26;91832.53;;;15.77;39.78
37206;BME280;23099;42.636;23.198;2023-04-29T12:57:53;91838.72;;;15.74;40.74
37206;BME280;23099;42.636;23.198;2023-04-29T13:00:21;91834.84;;;15.75;40.53
37206;BME280;23099;42.636;23.198;2023-04-29T13:02:48;91834.91;;;15.71;40.66